createdAt,value
2023-06-19T00:00:23.564Z,8.18
2023-06-19T00:02:52.012Z,8.45
2023-06-19T00:05:20.508Z,8.40
2023-06-19T00:07:50.070Z,9.50
2023-06-19T00:10:18.296Z,7.95
2023-06-19T00:12:46.629Z,8.23
2023-06-19T00:15:14.919Z,8.13
2023-06-19T00:17:43.451Z,8.23
2023-06-19T00:20:12.140Z,9.13
2023-06-19T00:22:40.386Z,7.90
2023-06-19T00:25:12.031Z,7.47
2023-06-19T00:27:40.195Z,8.65
2023-06-19T00:30:09.490Z,9.07
2023-06-19T00:32:47.347Z,8.73
2023-06-19T00:35:17.071Z,9.15
2023-06-19T00:37:46.717Z,9.30
2023-06-19T00:40:26.738Z,8.57
2023-06-19T00:42:54.971Z,8.57
2023-06-19T00:45:24.877Z,8.05
2023-06-19T00:47:53.612Z,8.73
2023-06-19T00:50:22.779Z,8.68
2023-06-19T00:52:51.379Z,9.73
2023-06-19T00:55:21.210Z,9.50
2023-06-19T00:57:51.654Z,10.10
2023-06-19T01:00:19.854Z,9.25
2023-06-19T01:02:49.165Z,8.02
2023-06-19T01:05:18.941Z,8.98
2023-06-19T01:07:55.129Z,9.77
2023-06-19T01:10:29.464Z,7.80
2023-06-19T01:13:01.144Z,8.30
2023-06-19T01:15:29.308Z,9.95
2023-06-19T01:17:59.888Z,9.02
2023-06-19T01:20:29.926Z,8.90
2023-06-19T01:22:59.472Z,9.05
2023-06-19T01:25:28.298Z,8.63
2023-06-19T01:27:56.658Z,10.65
2023-06-19T01:30:25.353Z,8.65
2023-06-19T01:33:00.837Z,9.13
2023-06-19T01:35:31.707Z,8.15
2023-06-19T01:38:03.065Z,8.50
2023-06-19T01:40:35.870Z,11.55
2023-06-19T01:43:05.621Z,8.82
2023-06-19T01:45:34.381Z,8.93
2023-06-19T01:48:02.768Z,8.60
2023-06-19T01:50:30.995Z,9.63
2023-06-19T01:53:01.060Z,10.20
2023-06-19T01:55:29.302Z,9.85
2023-06-19T01:57:59.726Z,9.50
2023-06-19T02:00:28.060Z,8.82
2023-06-19T02:03:00.094Z,9.55
2023-06-19T02:05:28.404Z,8.65
2023-06-19T02:07:56.557Z,9.18
2023-06-19T02:10:26.342Z,8.47
2023-06-19T02:12:54.617Z,9.40
2023-06-19T02:15:22.962Z,9.48
2023-06-19T02:17:56.173Z,8.95
2023-06-19T02:20:25.537Z,10.40
2023-06-19T02:22:54.219Z,9.97
2023-06-19T02:25:22.424Z,8.73
2023-06-19T02:27:52.054Z,9.48
2023-06-19T02:30:20.306Z,8.82
2023-06-19T02:32:48.491Z,9.05
2023-06-19T02:35:17.023Z,8.97
2023-06-19T02:37:47.635Z,8.75
2023-06-19T02:40:16.347Z,8.85
2023-06-19T02:42:44.565Z,9.00
2023-06-19T02:45:14.254Z,9.00
2023-06-19T02:47:43.281Z,8.07
2023-06-19T02:50:11.896Z,9.75
2023-06-19T02:52:40.074Z,8.85
2023-06-19T02:55:09.195Z,8.05
2023-06-19T02:57:39.065Z,9.00
2023-06-19T03:00:10.563Z,8.87
2023-06-19T03:02:42.972Z,9.85
2023-06-19T03:05:12.050Z,8.88
2023-06-19T03:07:40.214Z,8.57
2023-06-19T03:10:08.873Z,8.73
2023-06-19T03:12:37.289Z,8.07
2023-06-19T03:15:06.329Z,9.68
2023-06-19T03:17:37.085Z,10.50
2023-06-19T03:20:13.048Z,9.82
2023-06-19T03:22:45.815Z,9.60
2023-06-19T03:25:16.611Z,8.40
2023-06-19T03:27:45.106Z,8.85
2023-06-19T03:30:14.145Z,8.18
2023-06-19T03:32:44.264Z,9.50
2023-06-19T03:35:22.377Z,9.63
2023-06-19T03:37:50.691Z,8.77
2023-06-19T03:40:20.267Z,9.15
2023-06-19T03:42:50.725Z,8.38
2023-06-19T03:45:18.996Z,8.32
2023-06-19T03:47:47.685Z,9.27
2023-06-19T03:50:21.655Z,9.10
2023-06-19T03:52:52.482Z,9.48
2023-06-19T03:55:20.774Z,8.52
2023-06-19T03:57:49.041Z,9.93
2023-06-19T04:00:19.425Z,8.68
2023-06-19T04:02:51.181Z,10.03
2023-06-19T04:05:21.322Z,9.35
2023-06-19T04:07:49.619Z,9.48
2023-06-19T04:10:19.467Z,8.40
2023-06-19T04:12:50.095Z,9.95
2023-06-19T04:15:18.481Z,10.40
2023-06-19T04:17:46.759Z,8.18
2023-06-19T04:20:15.393Z,9.02
2023-06-19T04:22:43.711Z,9.20
2023-06-19T04:25:12.617Z,10.00
2023-06-19T04:27:42.236Z,9.17
2023-06-19T04:30:11.035Z,8.15
2023-06-19T04:32:41.882Z,9.35
2023-06-19T04:35:11.559Z,9.73
2023-06-19T04:37:39.875Z,10.10
2023-06-19T04:40:10.044Z,9.33
2023-06-19T04:42:39.845Z,11.23
2023-06-19T04:45:10.737Z,8.43
2023-06-19T04:47:52.371Z,9.02
2023-06-19T04:50:23.484Z,8.88
2023-06-19T04:52:53.048Z,11.10
2023-06-19T04:55:21.485Z,9.02
2023-06-19T04:57:49.893Z,9.95
2023-06-19T05:00:23.523Z,9.73
2023-06-19T05:02:52.325Z,8.88
2023-06-19T05:05:22.532Z,9.90
2023-06-19T05:07:52.603Z,10.40
2023-06-19T05:10:21.462Z,10.32
2023-06-19T05:12:49.824Z,10.05
2023-06-19T05:15:19.703Z,10.13
2023-06-19T05:17:48.076Z,9.10
2023-06-19T05:20:16.529Z,8.63
2023-06-19T05:22:45.360Z,10.32
2023-06-19T05:25:13.701Z,10.75
2023-06-19T05:27:42.116Z,9.10
2023-06-19T05:30:11.397Z,11.10
2023-06-19T05:32:41.335Z,9.73
2023-06-19T05:35:10.346Z,9.02
2023-06-19T05:37:39.931Z,9.48
2023-06-19T05:40:09.976Z,8.65
2023-06-19T05:42:38.813Z,8.37
2023-06-19T05:45:07.834Z,8.82
2023-06-19T05:47:36.119Z,10.55
2023-06-19T05:50:06.547Z,7.85
2023-06-19T05:52:34.835Z,10.93
2023-06-19T05:55:03.151Z,9.50
2023-06-19T05:57:31.397Z,8.75
2023-06-19T05:59:59.605Z,8.45
2023-06-19T06:02:29.727Z,9.40
2023-06-19T06:04:58.412Z,8.00
2023-06-19T06:07:29.796Z,7.33
2023-06-19T06:09:58.149Z,10.52
2023-06-19T06:12:26.421Z,9.20
2023-06-19T06:14:54.878Z,9.52
2023-06-19T06:17:23.342Z,7.47
2023-06-19T06:19:51.565Z,9.10
2023-06-19T06:22:19.865Z,7.30
2023-06-19T06:24:49.503Z,7.45
2023-06-19T06:27:17.950Z,7.53
2023-06-19T06:29:46.219Z,9.95
2023-06-19T06:32:14.372Z,8.57
2023-06-19T06:34:42.532Z,8.20
2023-06-19T06:37:10.799Z,9.88
2023-06-19T06:39:39.746Z,8.57
2023-06-19T06:42:09.414Z,8.40
2023-06-19T06:44:37.759Z,7.83
2023-06-19T06:47:06.022Z,7.32
2023-06-19T06:49:34.184Z,8.02
2023-06-19T06:52:02.461Z,7.97
2023-06-19T06:54:30.668Z,9.27
2023-06-19T06:56:59.534Z,7.00
2023-06-19T06:59:29.653Z,7.25
2023-06-19T07:01:58.400Z,7.68
2023-06-19T07:04:27.474Z,7.53
2023-06-19T07:06:55.874Z,6.90
2023-06-19T07:09:24.028Z,8.50
2023-06-19T07:11:53.919Z,7.20
2023-06-19T07:14:22.853Z,7.20
2023-06-19T07:16:52.792Z,6.93
2023-06-19T07:19:21.194Z,7.00
2023-06-19T07:21:49.743Z,5.70
2023-06-19T07:24:18.109Z,7.13
2023-06-19T07:26:48.265Z,6.70
2023-06-19T07:29:16.771Z,6.70
2023-06-19T07:31:45.089Z,6.07
2023-06-19T07:34:15.948Z,5.80
2023-06-19T07:36:44.830Z,7.28
2023-06-19T07:39:13.117Z,6.20
2023-06-19T07:41:41.492Z,6.80
2023-06-19T07:44:09.710Z,7.47
2023-06-19T07:46:38.162Z,5.57
2023-06-19T07:49:06.481Z,5.97
2023-06-19T07:51:36.092Z,5.97
2023-06-19T07:54:04.700Z,6.15
2023-06-19T07:56:33.333Z,5.68
2023-06-19T07:59:02.379Z,7.03
2023-06-19T08:01:32.075Z,5.38
2023-06-19T08:04:01.283Z,6.22
2023-06-19T08:06:29.522Z,6.88
2023-06-19T08:08:59.151Z,6.72
2023-06-19T08:11:28.127Z,5.70
2023-06-19T08:13:56.579Z,7.25
2023-06-19T08:16:26.673Z,5.70
2023-06-19T08:18:54.910Z,5.07
2023-06-19T08:21:23.098Z,6.05
2023-06-19T08:23:51.313Z,5.93
2023-06-19T08:26:21.451Z,4.63
2023-06-19T08:28:50.481Z,5.10
2023-06-19T08:31:18.907Z,6.80
2023-06-19T08:33:52.254Z,5.43
2023-06-19T08:36:22.888Z,5.00
2023-06-19T08:38:53.521Z,7.78
2023-06-19T08:41:23.124Z,5.30
2023-06-19T08:43:51.347Z,6.20
2023-06-19T08:46:20.753Z,7.05
2023-06-19T08:48:52.387Z,6.77
2023-06-19T08:51:20.630Z,5.40
2023-06-19T08:53:52.380Z,5.35
2023-06-19T08:56:22.143Z,5.95
2023-06-19T08:58:50.351Z,8.18
2023-06-19T09:01:20.478Z,6.10
2023-06-19T09:06:21.323Z,5.40
2023-06-19T09:09:00.292Z,5.45
2023-06-19T09:11:30.582Z,6.05
2023-06-19T09:13:59.898Z,6.30
2023-06-19T09:16:40.270Z,6.40
2023-06-19T09:19:08.811Z,7.65
2023-06-19T09:21:39.639Z,6.10
2023-06-19T09:24:09.363Z,6.10
2023-06-19T09:26:39.867Z,6.33
2023-06-19T09:29:19.507Z,7.95
2023-06-19T09:31:49.413Z,8.45
2023-06-19T09:34:17.670Z,6.50
2023-06-19T09:36:48.078Z,7.07
2023-06-19T09:39:18.175Z,6.63
2023-06-19T09:41:51.448Z,7.25
2023-06-19T09:44:23.970Z,6.20
2023-06-19T09:46:54.762Z,7.05
2023-06-19T09:49:27.439Z,5.97
2023-06-19T09:51:56.725Z,7.17
2023-06-19T09:54:26.886Z,7.85
2023-06-19T09:56:59.674Z,9.13
2023-06-19T09:59:28.339Z,6.00
2023-06-19T10:01:56.840Z,8.10
2023-06-19T10:04:25.280Z,8.80
2023-06-19T10:06:54.020Z,6.50
2023-06-19T10:09:23.609Z,6.90
2023-06-19T10:11:53.646Z,7.30
2023-06-19T10:14:25.862Z,6.85
2023-06-19T10:16:54.378Z,8.53
2023-06-19T10:19:25.016Z,8.10
2023-06-19T10:21:55.116Z,8.45
2023-06-19T10:24:26.144Z,5.65
2023-06-19T10:26:59.526Z,7.53
2023-06-19T10:29:40.902Z,6.27
2023-06-19T10:32:10.640Z,7.10
2023-06-19T10:34:38.899Z,9.63
2023-06-19T10:37:07.276Z,8.82
2023-06-19T10:39:35.459Z,8.48
2023-06-19T10:42:08.480Z,7.87
2023-06-19T10:44:39.050Z,5.70
2023-06-19T10:47:08.483Z,8.43
2023-06-19T10:49:37.740Z,6.63
2023-06-19T10:52:06.867Z,7.07
2023-06-19T10:54:35.123Z,6.47
2023-06-19T10:57:06.385Z,7.55
2023-06-19T10:59:37.202Z,6.72
2023-06-19T11:02:06.948Z,5.65
2023-06-19T11:04:40.431Z,7.07
2023-06-19T11:07:10.251Z,6.30
2023-06-19T11:09:38.381Z,7.18
2023-06-19T11:12:09.098Z,5.95
2023-06-19T11:14:41.085Z,7.45
2023-06-19T11:17:09.511Z,6.78
2023-06-19T11:19:39.965Z,7.90
2023-06-19T11:22:09.030Z,7.78
2023-06-19T11:24:37.476Z,6.20
2023-06-19T11:27:06.483Z,6.43
2023-06-19T11:29:38.270Z,7.00
2023-06-19T11:32:08.561Z,6.73
2023-06-19T11:34:40.772Z,8.23
2023-06-19T11:37:15.325Z,6.57
2023-06-19T11:39:46.198Z,6.68
2023-06-19T11:42:15.508Z,6.50
2023-06-19T11:44:58.335Z,6.30
2023-06-19T11:47:26.738Z,5.30
2023-06-19T11:49:56.280Z,6.32
2023-06-19T11:52:24.747Z,5.53
2023-06-19T11:54:52.905Z,6.10
2023-06-19T11:57:21.128Z,5.80
2023-06-19T11:59:49.374Z,6.28
2023-06-19T12:02:19.112Z,5.10
2023-06-19T12:04:47.618Z,5.35
2023-06-19T12:07:16.721Z,8.43
2023-06-19T12:09:45.297Z,5.60
2023-06-19T12:12:13.519Z,5.13
2023-06-19T12:14:41.711Z,6.60
2023-06-19T12:17:09.915Z,5.32
2023-06-19T12:19:39.580Z,5.93
2023-06-19T12:22:07.971Z,4.90
2023-06-19T12:24:36.240Z,5.25
2023-06-19T12:27:04.848Z,5.38
2023-06-19T12:29:33.066Z,6.10
2023-06-19T12:32:03.877Z,6.25
2023-06-19T12:34:32.696Z,7.73
2023-06-19T12:37:02.237Z,6.57
2023-06-19T12:39:30.590Z,5.78
2023-06-19T12:41:58.772Z,5.45
2023-06-19T12:44:27.237Z,7.85
2023-06-19T12:46:55.626Z,8.07
2023-06-19T12:49:23.845Z,5.40
2023-06-19T12:51:53.192Z,5.60
2023-06-19T12:54:22.948Z,6.88
2023-06-19T12:56:51.860Z,6.28
2023-06-19T12:59:20.330Z,5.57
2023-06-19T13:01:48.646Z,6.78
2023-06-19T13:04:17.143Z,5.93
2023-06-19T13:06:45.643Z,6.45
2023-06-19T13:09:13.855Z,4.97
2023-06-19T13:11:43.395Z,5.30
2023-06-19T13:14:11.612Z,5.20
2023-06-19T13:19:11.063Z,4.95
2023-06-19T13:21:39.391Z,4.90
2023-06-19T13:24:07.840Z,5.83
2023-06-19T13:26:36.225Z,5.25
2023-06-19T13:29:06.028Z,6.95
2023-06-19T13:31:34.776Z,4.95
2023-06-19T13:34:03.047Z,5.22
2023-06-19T13:36:31.322Z,5.47
2023-06-19T13:38:59.544Z,5.63
2023-06-19T13:41:28.112Z,5.57
2023-06-19T13:43:56.500Z,4.50
2023-06-19T13:46:26.373Z,5.15
2023-06-19T13:48:55.121Z,5.13
2023-06-19T13:51:24.567Z,7.00
2023-06-19T13:53:53.497Z,5.25
2023-06-19T13:56:21.828Z,4.97
2023-06-19T13:58:50.049Z,7.32
2023-06-19T14:01:18.509Z,6.20
2023-06-19T14:03:48.285Z,5.53
2023-06-19T14:06:16.525Z,5.00
2023-06-19T14:08:44.758Z,5.85
2023-06-19T14:11:12.922Z,5.45
2023-06-19T14:13:41.178Z,6.33
2023-06-19T14:16:09.530Z,6.85
2023-06-19T14:18:38.858Z,6.35
2023-06-19T14:21:08.446Z,6.20
2023-06-19T14:23:41.328Z,5.90
2023-06-19T14:26:09.822Z,5.40
2023-06-19T14:28:40.292Z,6.70
2023-06-19T14:31:08.727Z,7.10
2023-06-19T14:33:38.272Z,6.10
2023-06-19T14:36:08.432Z,5.25
2023-06-19T14:38:36.938Z,5.43
2023-06-19T14:41:05.652Z,5.15
2023-06-19T14:43:35.664Z,6.82
2023-06-19T14:46:05.237Z,5.18
2023-06-19T14:48:33.507Z,5.70
2023-06-19T14:51:05.702Z,5.80
2023-06-19T14:53:35.316Z,5.35
2023-06-19T14:56:03.628Z,5.22
2023-06-19T14:58:32.309Z,5.97
2023-06-19T15:01:00.534Z,6.05
2023-06-19T15:03:28.840Z,6.20
2023-06-19T15:05:57.110Z,5.60
2023-06-19T15:08:25.572Z,6.07
2023-06-19T15:10:55.364Z,5.93
2023-06-19T15:13:23.653Z,5.70
2023-06-19T15:15:52.920Z,6.23
2023-06-19T15:18:21.419Z,5.65
2023-06-19T15:20:49.709Z,5.72
2023-06-19T15:23:18.107Z,6.05
2023-06-19T15:25:46.447Z,10.52
2023-06-19T15:28:16.781Z,5.70
2023-06-19T15:30:45.002Z,5.50
2023-06-19T15:33:13.252Z,6.30
2023-06-19T15:35:42.478Z,7.53
2023-06-19T15:38:10.844Z,6.35
2023-06-19T15:40:39.491Z,6.80
2023-06-19T15:43:08.002Z,5.68
2023-06-19T15:45:37.776Z,6.68
2023-06-19T15:48:07.833Z,7.10
2023-06-19T15:50:36.020Z,6.10
2023-06-19T15:53:04.422Z,6.63
2023-06-19T15:55:32.573Z,6.53
2023-06-19T15:58:00.807Z,6.78
2023-06-19T16:00:29.063Z,6.10
2023-06-19T16:02:58.876Z,6.93
2023-06-19T16:05:27.548Z,6.73
2023-06-19T16:07:55.816Z,5.95
2023-06-19T16:10:24.451Z,6.28
2023-06-19T16:12:53.170Z,7.20
2023-06-19T16:15:28.764Z,6.55
2023-06-19T16:17:58.629Z,6.13
2023-06-19T16:20:27.111Z,6.60
2023-06-19T16:22:55.740Z,6.45
2023-06-19T16:25:24.676Z,8.25
2023-06-19T16:27:53.253Z,7.45
2023-06-19T16:30:21.862Z,6.97
2023-06-19T16:32:50.292Z,7.05
2023-06-19T16:35:23.315Z,6.68
2023-06-19T16:37:54.498Z,6.70
2023-06-19T16:40:25.075Z,7.63
2023-06-19T16:42:53.853Z,7.40
2023-06-19T16:45:24.701Z,7.35
2023-06-19T16:47:52.973Z,6.30
2023-06-19T16:50:23.051Z,6.07
2023-06-19T16:52:51.527Z,6.40
2023-06-19T16:55:23.207Z,8.97
2023-06-19T16:57:51.395Z,9.27
2023-06-19T17:00:20.525Z,7.03
2023-06-19T17:02:49.722Z,6.25
2023-06-19T17:05:18.735Z,6.80
2023-06-19T17:07:48.443Z,9.07
2023-06-19T17:10:17.185Z,6.63
2023-06-19T17:12:45.622Z,9.68
2023-06-19T17:15:13.778Z,7.60
2023-06-19T17:17:42.136Z,5.93
2023-06-19T17:20:13.288Z,6.70
2023-06-19T17:22:41.760Z,5.43
2023-06-19T17:25:11.640Z,7.25
2023-06-19T17:27:39.882Z,6.32
2023-06-19T17:30:10.433Z,6.63
2023-06-19T17:32:38.842Z,6.47
2023-06-19T17:35:10.152Z,7.03
2023-06-19T17:37:38.678Z,5.70
2023-06-19T17:40:08.971Z,6.15
2023-06-19T17:42:39.281Z,6.07
2023-06-19T17:45:08.643Z,6.33
2023-06-19T17:47:37.092Z,6.63
2023-06-19T17:50:06.281Z,5.25
2023-06-19T17:52:34.799Z,6.03
2023-06-19T17:55:03.352Z,5.65
2023-06-19T17:57:32.158Z,8.17
2023-06-19T18:00:05.096Z,6.15
2023-06-19T18:02:40.864Z,5.30
2023-06-19T18:05:09.575Z,6.93
2023-06-19T18:07:38.060Z,6.35
2023-06-19T18:10:07.582Z,6.00
2023-06-19T18:12:36.872Z,6.90
2023-06-19T18:15:07.429Z,5.50
2023-06-19T18:17:38.136Z,5.78
2023-06-19T18:20:07.884Z,6.22
2023-06-19T18:22:37.098Z,6.10
2023-06-19T18:25:06.073Z,6.00
2023-06-19T18:27:34.434Z,6.10
2023-06-19T18:30:04.781Z,6.97
2023-06-19T18:32:35.096Z,6.03
2023-06-19T18:35:03.917Z,5.50
2023-06-19T18:37:32.188Z,5.50
2023-06-19T18:40:00.849Z,6.95
2023-06-19T18:42:30.895Z,6.63
2023-06-19T18:44:59.911Z,6.38
2023-06-19T18:47:28.810Z,7.17
2023-06-19T18:49:59.205Z,5.65
2023-06-19T18:52:27.975Z,7.57
2023-06-19T18:54:56.616Z,6.28
2023-06-19T18:57:29.197Z,7.72
2023-06-19T18:59:59.452Z,5.70
2023-06-19T19:02:28.392Z,6.07
2023-06-19T19:04:59.028Z,6.82
2023-06-19T19:07:28.025Z,5.40
2023-06-19T19:09:56.673Z,6.78
2023-06-19T19:12:25.068Z,6.43
2023-06-19T19:14:53.575Z,5.45
2023-06-19T19:17:22.270Z,6.45
2023-06-19T19:19:50.666Z,6.50
2023-06-19T19:22:20.572Z,6.88
2023-06-19T19:24:49.282Z,8.13
2023-06-19T19:27:18.376Z,7.35
2023-06-19T19:29:46.733Z,6.45
2023-06-19T19:32:15.150Z,6.10
2023-06-19T19:34:43.420Z,8.18
2023-06-19T19:37:11.613Z,5.47
2023-06-19T19:39:41.247Z,7.00
2023-06-19T19:42:10.069Z,7.63
2023-06-19T19:44:38.670Z,6.10
2023-06-19T19:47:08.277Z,7.25
2023-06-19T19:49:37.577Z,6.90
2023-06-19T19:52:06.765Z,7.72
2023-06-19T19:54:35.574Z,7.60
2023-06-19T19:57:06.006Z,8.07
2023-06-19T19:59:35.986Z,6.72
2023-06-19T20:02:04.631Z,7.60
2023-06-19T20:04:32.974Z,6.95
2023-06-19T20:07:01.181Z,6.95
2023-06-19T20:09:29.481Z,6.80
2023-06-19T20:12:05.818Z,6.55
2023-06-19T20:14:47.446Z,7.17
2023-06-19T20:17:15.680Z,7.25
2023-06-19T20:19:43.915Z,6.43
2023-06-19T20:22:12.326Z,6.00
2023-06-19T20:24:40.675Z,6.93
2023-06-19T20:27:11.255Z,6.60
2023-06-19T20:29:39.588Z,6.15
2023-06-19T20:32:09.857Z,7.57
2023-06-19T20:34:38.344Z,6.40
2023-06-19T20:37:07.439Z,8.23
2023-06-19T20:39:35.948Z,6.83
2023-06-19T20:42:05.125Z,8.40
2023-06-19T20:44:36.270Z,6.25
2023-06-19T20:47:05.253Z,6.55
2023-06-19T20:49:34.989Z,11.93
2023-06-19T20:52:03.429Z,6.37
2023-06-19T20:54:31.612Z,8.10
2023-06-19T20:56:59.771Z,7.60
2023-06-19T20:59:28.051Z,7.22
2023-06-19T21:02:01.042Z,5.93
2023-06-19T21:04:29.984Z,7.50
2023-06-19T21:06:59.699Z,6.88
2023-06-19T21:09:28.065Z,6.68
2023-06-19T21:11:56.462Z,6.63
2023-06-19T21:14:24.797Z,6.38
2023-06-19T21:16:53.119Z,7.50
2023-06-19T21:19:21.451Z,7.57
2023-06-19T21:21:49.606Z,6.40
2023-06-19T21:24:19.225Z,6.43
2023-06-19T21:26:47.725Z,6.20
2023-06-19T21:29:16.991Z,7.87
2023-06-19T21:31:45.370Z,6.65
2023-06-19T21:34:13.914Z,6.43
2023-06-19T21:36:42.254Z,5.65
2023-06-19T21:39:10.528Z,6.22
2023-06-19T21:41:40.185Z,6.53
2023-06-19T21:44:08.442Z,8.57
2023-06-19T21:46:37.632Z,6.78
2023-06-19T21:49:05.935Z,6.05
2023-06-19T21:51:36.131Z,5.97
2023-06-19T21:54:04.624Z,6.80
2023-06-19T21:56:32.820Z,7.40
2023-06-19T21:59:02.529Z,7.32
2023-06-19T22:01:30.741Z,7.05
2023-06-19T22:03:59.152Z,6.00
2023-06-19T22:06:27.293Z,7.73
2023-06-19T22:09:01.128Z,6.28
2023-06-19T22:11:29.752Z,7.13
2023-06-19T22:13:58.224Z,7.13
2023-06-19T22:16:27.836Z,6.85
2023-06-19T22:18:56.084Z,6.53
2023-06-19T22:21:24.531Z,6.50
2023-06-19T22:23:52.989Z,6.88
2023-06-19T22:26:21.206Z,6.70
2023-06-19T22:28:49.420Z,7.38
2023-06-19T22:31:17.692Z,6.60
2023-06-19T22:33:47.485Z,6.55
2023-06-19T22:36:15.809Z,6.30
2023-06-19T22:38:44.106Z,7.00
2023-06-19T22:41:12.418Z,6.18
2023-06-19T22:43:40.674Z,6.53
2023-06-19T22:46:08.921Z,6.78
2023-06-19T22:48:37.469Z,8.10
2023-06-19T22:51:07.172Z,6.60
2023-06-19T22:53:35.506Z,6.90
2023-06-19T22:56:03.862Z,6.70
2023-06-19T22:58:32.195Z,8.02
2023-06-19T23:01:00.687Z,7.70
2023-06-19T23:03:29.060Z,7.65
2023-06-19T23:05:57.721Z,6.40
2023-06-19T23:08:27.352Z,7.30
2023-06-19T23:10:55.547Z,6.93
2023-06-19T23:13:23.864Z,6.75
2023-06-19T23:15:52.482Z,8.05
2023-06-19T23:18:20.709Z,7.47
2023-06-19T23:20:48.894Z,8.40
2023-06-19T23:23:21.006Z,6.55
2023-06-19T23:25:51.855Z,8.07
2023-06-19T23:28:20.128Z,8.23
2023-06-19T23:30:52.039Z,6.50
2023-06-19T23:33:21.147Z,7.80
2023-06-19T23:35:50.428Z,9.88
2023-06-19T23:38:18.647Z,6.40
2023-06-19T23:40:47.121Z,7.97
2023-06-19T23:43:16.762Z,6.78
2023-06-19T23:45:45.009Z,7.40
2023-06-19T23:48:13.479Z,6.90
2023-06-19T23:50:41.667Z,6.72
2023-06-19T23:53:10.148Z,7.40
2023-06-19T23:55:38.273Z,7.00
2023-06-19T23:58:06.557Z,8.50
